Time;durP1;ratioP1;P1;durP2;ratioP2;P2;SDS_P1;SDS_P2;PMS_P1;PMS_P2;Temp;Humidity;BMP_temperature;BMP_pressure;BME280_temperature;BME280_humidity;BME280_pressure;Samples;Min_cycle;Max_cycle;Signal;HPM_P1;HPM_P2
2024/02/19 00:02:07;;;;;;;0.10;0.10;;;;;;;;;;5062655;28;20483;-76
2024/02/19 00:04:33;;;;;;;0.20;0.20;;;;;;;;;;5046711;28;20260;-76
2024/02/19 00:07:00;;;;;;;0.10;0.10;;;;;;;;;;5063223;28;20308;-76
2024/02/19 00:09:27;;;;;;;0.17;0.17;;;;;;;;;;5045328;28;20277;-77
2024/02/19 00:11:54;;;;;;;0.50;0.50;;;;;;;;;;5061269;28;20246;-76
2024/02/19 00:14:21;;;;;;;0.10;0.10;;;;;;;;;;5047256;28;20211;-77
2024/02/19 00:16:47;;;;;;;1.03;1.03;;;;;;;;;;5059906;28;20568;-76
2024/02/19 00:19:14;;;;;;;0.13;0.13;;;;;;;;;;5049072;28;20265;-76
2024/02/19 00:21:40;;;;;;;0.30;0.30;;;;;;;;;;5057646;28;20307;-76
2024/02/19 00:24:06;;;;;;;0.43;0.43;;;;;;;;;;5050825;28;20208;-76
2024/02/19 00:26:33;;;;;;;0.20;0.20;;;;;;;;;;5055958;28;20362;-76
2024/02/19 00:29:01;;;;;;;0.10;0.10;;;;;;;;;;5052815;28;20382;-76
2024/02/19 00:31:27;;;;;;;0.20;0.20;;;;;;;;;;5054034;28;20243;-76
2024/02/19 00:33:54;;;;;;;0.30;0.30;;;;;;;;;;5054395;28;20243;-77
2024/02/19 00:36:20;;;;;;;0.10;0.10;;;;;;;;;;5052422;28;20256;-76
2024/02/19 00:38:47;;;;;;;0.13;0.13;;;;;;;;;;5055841;28;20246;-76
2024/02/19 00:41:13;;;;;;;0.10;0.10;;;;;;;;;;5050490;28;20270;-77
2024/02/19 00:43:40;;;;;;;0.17;0.17;;;;;;;;;;5057840;28;20202;-76
2024/02/19 00:46:07;;;;;;;0.10;0.10;;;;;;;;;;5052177;28;20298;-76
2024/02/19 00:48:34;;;;;;;0.10;0.10;;;;;;;;;;5064039;28;20285;-75
2024/02/19 00:51:03;;;;;;;0.10;0.10;;;;;;;;;;5051051;28;20308;-76
2024/02/19 00:53:29;;;;;;;0.10;0.10;;;;;;;;;;5064796;28;20294;-76
2024/02/19 00:55:55;;;;;;;0.10;0.10;;;;;;;;;;5049687;28;20239;-76
2024/02/19 00:58:22;;;;;;;0.20;0.20;;;;;;;;;;5066321;28;20249;-76
2024/02/19 01:00:48;;;;;;;0.20;0.20;;;;;;;;;;5047126;28;20264;-77
2024/02/19 01:03:16;;;;;;;0.10;0.10;;;;;;;;;;5068440;28;20217;-77
2024/02/19 01:05:43;;;;;;;0.20;0.20;;;;;;;;;;5046181;28;20262;-76
2024/02/19 01:08:09;;;;;;;0.10;0.10;;;;;;;;;;5069331;28;20239;-76
2024/02/19 01:10:36;;;;;;;0.30;0.30;;;;;;;;;;5043997;28;20256;-77
2024/02/19 01:13:02;;;;;;;0.20;0.20;;;;;;;;;;5071214;28;20226;-77
2024/02/19 01:15:28;;;;;;;0.10;0.10;;;;;;;;;;5042094;28;20253;-76
2024/02/19 01:17:55;;;;;;;0.10;0.10;;;;;;;;;;5073291;28;20260;-76
2024/02/19 01:20:22;;;;;;;0.10;0.10;;;;;;;;;;5040144;28;20280;-76
2024/02/19 01:22:49;;;;;;;0.17;0.17;;;;;;;;;;5075092;28;20222;-76
2024/02/19 01:25:15;;;;;;;0.17;0.17;;;;;;;;;;5038013;28;20208;-77
2024/02/19 01:27:42;;;;;;;0.20;0.20;;;;;;;;;;5076660;28;20248;-76
2024/02/19 01:30:09;;;;;;;0.10;0.10;;;;;;;;;;5044603;28;20245;-76
2024/02/19 01:32:36;;;;;;;0.20;0.20;;;;;;;;;;5078159;28;20263;-77
2024/02/19 01:35:03;;;;;;;0.10;0.10;;;;;;;;;;5046531;28;20213;-77
2024/02/19 01:37:31;;;;;;;0.17;0.17;;;;;;;;;;5068437;28;20241;-77
2024/02/19 01:39:57;;;;;;;0.50;0.50;;;;;;;;;;5046220;28;20208;-77
2024/02/19 01:42:24;;;;;;;0.60;0.60;;;;;;;;;;5068325;28;20254;-76
2024/02/19 01:44:50;;;;;;;0.20;0.20;;;;;;;;;;5046263;28;20201;-77
2024/02/19 01:47:17;;;;;;;0.10;0.10;;;;;;;;;;5068363;28;20303;-76
2024/02/19 01:49:44;;;;;;;0.20;0.20;;;;;;;;;;5046099;28;20240;-77
2024/02/19 01:52:10;;;;;;;0.10;0.10;;;;;;;;;;5068186;28;20437;-77
2024/02/19 01:54:38;;;;;;;0.40;0.40;;;;;;;;;;5046123;28;20276;-77
2024/02/19 01:57:05;;;;;;;0.47;0.47;;;;;;;;;;5065951;28;20240;-77
2024/02/19 01:59:32;;;;;;;0.30;0.30;;;;;;;;;;5047149;28;20464;-77
2024/02/19 02:01:59;;;;;;;0.10;0.10;;;;;;;;;;5064993;28;20586;-77
2024/02/19 02:04:26;;;;;;;0.10;0.10;;;;;;;;;;5048184;28;20205;-77
2024/02/19 02:06:53;;;;;;;0.30;0.30;;;;;;;;;;5063484;28;20267;-77
2024/02/19 02:09:19;;;;;;;0.40;0.40;;;;;;;;;;5049485;28;20292;-77
2024/02/19 02:11:47;;;;;;;0.20;0.20;;;;;;;;;;5061542;28;20268;-77
2024/02/19 02:14:13;;;;;;;0.20;0.20;;;;;;;;;;5051379;28;20229;-77
2024/02/19 02:16:39;;;;;;;0.10;0.10;;;;;;;;;;5059744;28;20257;-76
2024/02/19 02:19:06;;;;;;;0.13;0.13;;;;;;;;;;5053223;28;20212;-76
2024/02/19 02:21:33;;;;;;;0.20;0.20;;;;;;;;;;5057912;28;20297;-77
2024/02/19 02:24:00;;;;;;;0.10;0.10;;;;;;;;;;5054864;28;20207;-76
2024/02/19 02:26:27;;;;;;;0.10;0.10;;;;;;;;;;5056052;28;20259;-77
2024/02/19 02:28:55;;;;;;;0.10;0.10;;;;;;;;;;5056402;28;20222;-76
2024/02/19 02:31:22;;;;;;;0.10;0.10;;;;;;;;;;5054647;28;20290;-77
2024/02/19 02:33:48;;;;;;;0.10;0.10;;;;;;;;;;5057701;28;20415;-77
2024/02/19 02:36:15;;;;;;;0.10;0.10;;;;;;;;;;5052928;28;20263;-77
2024/02/19 02:38:42;;;;;;;0.10;0.10;;;;;;;;;;5059181;28;20250;-76
2024/02/19 02:41:08;;;;;;;0.20;0.20;;;;;;;;;;5050831;28;20290;-76
2024/02/19 02:43:34;;;;;;;0.10;0.10;;;;;;;;;;5061022;28;20256;-77
2024/02/19 02:46:02;;;;;;;0.20;0.20;;;;;;;;;;5048830;28;20299;-76
2024/02/19 02:48:29;;;;;;;0.20;0.20;;;;;;;;;;5063156;28;20242;-77
2024/02/19 02:50:55;;;;;;;0.20;0.20;;;;;;;;;;5047452;28;20259;-77
2024/02/19 02:53:22;;;;;;;0.10;0.10;;;;;;;;;;5064564;28;20236;-76
2024/02/19 02:55:48;;;;;;;0.20;0.20;;;;;;;;;;5045552;28;20262;-76
2024/02/19 02:58:15;;;;;;;0.10;0.10;;;;;;;;;;5066046;28;20247;-77
2024/02/19 03:00:41;;;;;;;0.10;0.10;;;;;;;;;;5043287;28;20344;-76
2024/02/19 03:03:09;;;;;;;0.20;0.20;;;;;;;;;;5068335;28;20426;-76
2024/02/19 03:05:36;;;;;;;0.10;0.10;;;;;;;;;;5041822;28;20302;-76
2024/02/19 03:08:02;;;;;;;0.20;0.20;;;;;;;;;;5069026;28;20492;-76
2024/02/19 03:10:29;;;;;;;0.20;0.20;;;;;;;;;;5040056;28;20302;-76
2024/02/19 03:12:55;;;;;;;0.20;0.20;;;;;;;;;;5071381;28;20465;-77
2024/02/19 03:15:22;;;;;;;0.20;0.20;;;;;;;;;;5037765;28;20236;-76
2024/02/19 03:17:48;;;;;;;0.20;0.20;;;;;;;;;;5072761;28;20199;-76
2024/02/19 03:20:18;;;;;;;0.10;0.10;;;;;;;;;;5036078;28;20404;-76
2024/02/19 03:22:44;;;;;;;0.20;0.20;;;;;;;;;;5074154;28;20189;-76
2024/02/19 03:25:11;;;;;;;0.20;0.20;;;;;;;;;;5035175;28;20238;-76
2024/02/19 03:27:38;;;;;;;0.10;0.10;;;;;;;;;;5075599;28;20246;-76
2024/02/19 03:30:06;;;;;;;0.20;0.20;;;;;;;;;;5044158;28;20410;-76
2024/02/19 03:32:32;;;;;;;0.10;0.10;;;;;;;;;;5066289;28;20247;-76
2024/02/19 03:34:59;;;;;;;0.20;0.20;;;;;;;;;;5044039;28;20320;-76
2024/02/19 03:37:27;;;;;;;0.20;0.20;;;;;;;;;;5066288;28;20302;-76
2024/02/19 03:39:53;;;;;;;0.20;0.20;;;;;;;;;;5044182;28;20209;-76
2024/02/19 03:42:20;;;;;;;0.20;0.20;;;;;;;;;;5066175;28;20240;-76
2024/02/19 03:44:46;;;;;;;0.10;0.10;;;;;;;;;;5044034;28;20504;-76
2024/02/19 03:47:13;;;;;;;0.10;0.10;;;;;;;;;;5065940;28;20239;-76
2024/02/19 03:49:39;;;;;;;0.10;0.10;;;;;;;;;;5043875;28;20232;-75
2024/02/19 03:52:06;;;;;;;0.17;0.17;;;;;;;;;;5064878;28;20238;-76
2024/02/19 03:54:33;;;;;;;0.10;0.10;;;;;;;;;;5044296;28;20298;-76
2024/02/19 03:57:00;;;;;;;0.10;0.10;;;;;;;;;;5063192;28;20459;-77
2024/02/19 03:59:26;;;;;;;0.20;0.20;;;;;;;;;;5046444;28;20272;-77
2024/02/19 04:01:52;;;;;;;0.10;0.10;;;;;;;;;;5061118;28;20248;-77
2024/02/19 04:04:19;;;;;;;0.10;0.10;;;;;;;;;;5048369;28;20274;-76
2024/02/19 04:06:45;;;;;;;0.20;0.20;;;;;;;;;;5059321;28;20239;-77
2024/02/19 04:09:11;;;;;;;0.10;0.10;;;;;;;;;;5049564;28;20303;-77
2024/02/19 04:11:39;;;;;;;0.13;0.13;;;;;;;;;;5057493;28;20241;-77
2024/02/19 04:14:05;;;;;;;0.20;0.20;;;;;;;;;;5051175;28;20235;-77
2024/02/19 04:16:32;;;;;;;0.10;0.10;;;;;;;;;;5055772;28;20283;-77
2024/02/19 04:18:59;;;;;;;0.10;0.10;;;;;;;;;;5052393;28;20212;-77
2024/02/19 04:21:25;;;;;;;0.20;0.20;;;;;;;;;;5054025;28;20685;-77
2024/02/19 04:23:51;;;;;;;0.13;0.13;;;;;;;;;;5054914;28;20236;-76
2024/02/19 04:26:18;;;;;;;0.20;0.20;;;;;;;;;;5051864;28;20275;-77
2024/02/19 04:28:46;;;;;;;0.20;0.20;;;;;;;;;;5057090;28;20266;-77
2024/02/19 04:31:12;;;;;;;0.10;0.10;;;;;;;;;;5050487;28;20268;-77
2024/02/19 04:33:38;;;;;;;0.13;0.13;;;;;;;;;;5058057;28;20226;-76
2024/02/19 04:36:07;;;;;;;0.20;0.20;;;;;;;;;;5048329;28;20306;-77
2024/02/19 04:38:34;;;;;;;0.10;0.10;;;;;;;;;;5059913;28;20205;-77
2024/02/19 04:41:00;;;;;;;0.20;0.20;;;;;;;;;;5047320;28;20235;-77
2024/02/19 04:43:26;;;;;;;0.20;0.20;;;;;;;;;;5061696;28;20207;-76
2024/02/19 04:45:54;;;;;;;0.20;0.20;;;;;;;;;;5044736;28;20244;-76
2024/02/19 04:48:20;;;;;;;0.20;0.20;;;;;;;;;;5063585;28;20482;-77
2024/02/19 04:50:47;;;;;;;0.10;0.10;;;;;;;;;;5043561;28;20242;-76
2024/02/19 04:53:17;;;;;;;0.10;0.10;;;;;;;;;;5065197;28;20302;-76
2024/02/19 04:55:44;;;;;;;0.20;0.20;;;;;;;;;;5042377;28;20246;-76
2024/02/19 04:58:10;;;;;;;0.20;0.20;;;;;;;;;;5066206;28;20502;-76
2024/02/19 05:00:37;;;;;;;0.20;0.20;;;;;;;;;;5040534;28;20506;-76
2024/02/19 05:03:05;;;;;;;0.20;0.20;;;;;;;;;;5067501;28;20224;-76
2024/02/19 05:05:31;;;;;;;0.20;0.20;;;;;;;;;;5037937;28;20212;-77
2024/02/19 05:07:58;;;;;;;0.20;0.20;;;;;;;;;;5069464;28;20429;-76
2024/02/19 05:10:24;;;;;;;0.10;0.10;;;;;;;;;;5037013;28;20688;-77
2024/02/19 05:12:50;;;;;;;0.20;0.20;;;;;;;;;;5071123;28;20485;-77
2024/02/19 05:15:17;;;;;;;0.20;0.20;;;;;;;;;;5035030;28;20223;-77
2024/02/19 05:17:43;;;;;;;0.20;0.20;;;;;;;;;;5073008;28;20200;-76
2024/02/19 05:20:11;;;;;;;0.20;0.20;;;;;;;;;;5034131;28;20229;-77
2024/02/19 05:22:38;;;;;;;0.10;0.10;;;;;;;;;;5074052;28;20235;-76
2024/02/19 05:25:05;;;;;;;0.20;0.20;;;;;;;;;;5043122;28;20275;-75
2024/02/19 05:27:31;;;;;;;0.10;0.10;;;;;;;;;;5064980;28;20501;-76
2024/02/19 05:29:57;;;;;;;0.20;0.20;;;;;;;;;;5043046;28;20275;-76
2024/02/19 05:32:24;;;;;;;0.20;0.20;;;;;;;;;;5067105;28;20302;-77
2024/02/19 05:34:50;;;;;;;0.20;0.20;;;;;;;;;;5046391;28;20457;-76
2024/02/19 05:37:18;;;;;;;0.10;0.10;;;;;;;;;;5068413;28;20313;-76
2024/02/19 05:39:44;;;;;;;0.20;0.20;;;;;;;;;;5046352;28;20254;-76
2024/02/19 05:42:11;;;;;;;0.20;0.20;;;;;;;;;;5068214;28;20242;-76
2024/02/19 05:44:37;;;;;;;0.20;0.20;;;;;;;;;;5046392;28;20456;-76
2024/02/19 05:47:04;;;;;;;0.20;0.20;;;;;;;;;;5066784;28;20246;-76
2024/02/19 05:49:30;;;;;;;0.17;0.17;;;;;;;;;;5047342;28;20236;-77
2024/02/19 05:51:56;;;;;;;0.20;0.20;;;;;;;;;;5064593;28;20239;-76
2024/02/19 05:54:24;;;;;;;0.20;0.20;;;;;;;;;;5049041;28;20235;-76
2024/02/19 05:56:50;;;;;;;0.20;0.20;;;;;;;;;;5062901;28;20259;-76
2024/02/19 05:59:17;;;;;;;0.13;0.13;;;;;;;;;;5050844;28;20470;-76
2024/02/19 06:01:43;;;;;;;0.10;0.10;;;;;;;;;;5059908;28;20241;-76
2024/02/19 06:04:10;;;;;;;0.10;0.10;;;;;;;;;;5053710;28;20244;-76
2024/02/19 06:06:36;;;;;;;0.20;0.20;;;;;;;;;;5059177;28;20443;-77
2024/02/19 06:09:04;;;;;;;0.20;0.20;;;;;;;;;;5054031;28;20232;-76
2024/02/19 06:11:32;;;;;;;0.20;0.20;;;;;;;;;;5057456;28;20461;-76
2024/02/19 06:13:58;;;;;;;0.20;0.20;;;;;;;;;;5055274;28;20300;-76
2024/02/19 06:16:25;;;;;;;0.13;0.13;;;;;;;;;;5055826;28;20246;-76
2024/02/19 06:18:52;;;;;;;0.10;0.10;;;;;;;;;;5057387;28;20444;-76
2024/02/19 06:21:18;;;;;;;0.20;0.20;;;;;;;;;;5053894;28;20239;-76
2024/02/19 06:23:44;;;;;;;0.10;0.10;;;;;;;;;;5058723;28;20273;-76
2024/02/19 06:26:11;;;;;;;0.10;0.10;;;;;;;;;;5052048;28;20254;-77
2024/02/19 06:28:44;;;;;;;0.10;0.10;;;;;;;;;;5060504;28;20237;-76
2024/02/19 06:31:18;;;;;;;0.10;0.10;;;;;;;;;;5052175;28;20306;-77
2024/02/19 06:33:44;;;;;;;0.10;0.10;;;;;;;;;;5058542;28;20219;-77
2024/02/19 06:36:11;;;;;;;0.10;0.10;;;;;;;;;;5051750;28;20239;-77
2024/02/19 06:38:37;;;;;;;0.20;0.20;;;;;;;;;;5060811;28;20441;-76
2024/02/19 06:41:04;;;;;;;0.17;0.17;;;;;;;;;;5049594;28;20254;-76
2024/02/19 06:43:30;;;;;;;0.10;0.10;;;;;;;;;;5061761;28;20208;-76
2024/02/19 06:45:58;;;;;;;0.10;0.10;;;;;;;;;;5047707;28;20270;-76
2024/02/19 06:48:24;;;;;;;0.10;0.10;;;;;;;;;;5064077;28;20503;-76
2024/02/19 06:50:51;;;;;;;0.20;0.20;;;;;;;;;;5045632;28;20498;-76
2024/02/19 06:53:20;;;;;;;0.20;0.20;;;;;;;;;;5066457;28;20231;-77
2024/02/19 06:55:46;;;;;;;0.20;0.20;;;;;;;;;;5044842;28;20450;-77
2024/02/19 06:58:12;;;;;;;0.10;0.10;;;;;;;;;;5066917;28;20206;-77
2024/02/19 07:00:39;;;;;;;0.20;0.20;;;;;;;;;;5042547;28;20263;-76
2024/02/19 07:03:07;;;;;;;0.17;0.17;;;;;;;;;;5068706;28;20236;-76
2024/02/19 07:05:33;;;;;;;0.20;0.20;;;;;;;;;;5041193;28;20329;-76
2024/02/19 07:08:00;;;;;;;0.20;0.20;;;;;;;;;;5069734;28;20308;-76
2024/02/19 07:10:26;;;;;;;0.10;0.10;;;;;;;;;;5039194;28;20276;-76
2024/02/19 07:12:52;;;;;;;0.20;0.20;;;;;;;;;;5071725;28;20244;-77
2024/02/19 07:15:19;;;;;;;0.20;0.20;;;;;;;;;;5037145;28;20252;-77
2024/02/19 07:17:45;;;;;;;0.20;0.20;;;;;;;;;;5073518;28;20204;-76
2024/02/19 07:20:13;;;;;;;0.20;0.20;;;;;;;;;;5035103;28;20208;-77
2024/02/19 07:22:40;;;;;;;0.20;0.20;;;;;;;;;;5075363;28;20251;-76
2024/02/19 07:25:06;;;;;;;0.20;0.20;;;;;;;;;;5044520;28;20235;-77
2024/02/19 07:27:33;;;;;;;0.20;0.20;;;;;;;;;;5066566;28;20245;-76
2024/02/19 07:29:59;;;;;;;0.10;0.10;;;;;;;;;;5044354;28;20398;-76
2024/02/19 07:32:25;;;;;;;0.20;0.20;;;;;;;;;;5066229;28;20246;-76
2024/02/19 07:34:52;;;;;;;0.20;0.20;;;;;;;;;;5044083;28;20267;-76
2024/02/19 07:37:20;;;;;;;0.20;0.20;;;;;;;;;;5066214;28;20262;-75
2024/02/19 07:39:46;;;;;;;0.20;0.20;;;;;;;;;;5043962;28;20213;-74
2024/02/19 07:42:13;;;;;;;0.10;0.10;;;;;;;;;;5066236;28;20254;-74
2024/02/19 07:44:39;;;;;;;0.17;0.17;;;;;;;;;;5043632;28;20512;-73
2024/02/19 07:47:05;;;;;;;0.20;0.20;;;;;;;;;;5064852;28;20423;-73
2024/02/19 07:49:32;;;;;;;0.20;0.20;;;;;;;;;;5045146;28;20291;-73
2024/02/19 07:51:58;;;;;;;0.10;0.10;;;;;;;;;;5063012;28;20269;-73
2024/02/19 07:54:26;;;;;;;0.20;0.20;;;;;;;;;;5045922;28;20285;-73
2024/02/19 07:56:52;;;;;;;0.20;0.20;;;;;;;;;;5061406;28;20245;-74
2024/02/19 07:59:20;;;;;;;0.20;0.20;;;;;;;;;;5048191;28;20413;-74
2024/02/19 08:01:46;;;;;;;0.20;0.20;;;;;;;;;;5059456;28;20253;-74
2024/02/19 08:04:12;;;;;;;0.20;0.20;;;;;;;;;;5049980;28;20272;-74
2024/02/19 08:06:39;;;;;;;0.20;0.20;;;;;;;;;;5057644;28;20309;-74
2024/02/19 08:09:05;;;;;;;0.10;0.10;;;;;;;;;;5051520;28;20235;-75
2024/02/19 08:11:33;;;;;;;0.23;0.23;;;;;;;;;;5055911;28;20481;-74
2024/02/19 08:14:00;;;;;;;0.10;0.10;;;;;;;;;;5053270;28;20204;-74
2024/02/19 08:16:27;;;;;;;0.20;0.20;;;;;;;;;;5053848;28;20239;-74
2024/02/19 08:18:53;;;;;;;0.20;0.20;;;;;;;;;;5055203;28;20207;-73
2024/02/19 08:21:19;;;;;;;0.10;0.10;;;;;;;;;;5052360;28;20306;-73
2024/02/19 08:23:46;;;;;;;0.20;0.20;;;;;;;;;;5056484;28;20246;-74
2024/02/19 08:26:12;;;;;;;0.20;0.20;;;;;;;;;;5050041;28;20417;-73
2024/02/19 08:28:40;;;;;;;0.63;0.63;;;;;;;;;;5058545;28;20279;-73
2024/02/19 08:31:06;;;;;;;0.20;0.20;;;;;;;;;;5048726;28;20242;-74
2024/02/19 08:33:32;;;;;;;0.20;0.20;;;;;;;;;;5060195;28;20370;-73
2024/02/19 08:36:00;;;;;;;0.20;0.20;;;;;;;;;;5046541;28;20246;-73
2024/02/19 08:38:27;;;;;;;0.10;0.10;;;;;;;;;;5061773;28;20400;-74
2024/02/19 08:40:54;;;;;;;0.20;0.20;;;;;;;;;;5045219;28;20242;-74
2024/02/19 08:43:20;;;;;;;0.13;0.13;;;;;;;;;;5063280;28;20209;-75
2024/02/19 08:45:48;;;;;;;0.20;0.20;;;;;;;;;;5043694;28;20443;-73
2024/02/19 08:48:14;;;;;;;0.20;0.20;;;;;;;;;;5064809;28;20209;-74
2024/02/19 08:50:41;;;;;;;0.20;0.20;;;;;;;;;;5041838;28;20263;-74
2024/02/19 08:53:08;;;;;;;0.20;0.20;;;;;;;;;;5066313;28;20212;-74
2024/02/19 08:55:34;;;;;;;0.10;0.10;;;;;;;;;;5039920;28;20310;-75
2024/02/19 08:58:00;;;;;;;0.10;0.10;;;;;;;;;;5068336;28;20234;-74
2024/02/19 09:00:27;;;;;;;0.20;0.20;;;;;;;;;;5038256;28;20204;-73
2024/02/19 09:02:55;;;;;;;0.20;0.20;;;;;;;;;;5070243;28;20208;-73
2024/02/19 09:05:22;;;;;;;0.20;0.20;;;;;;;;;;5036979;28;20202;-73
2024/02/19 09:07:48;;;;;;;0.20;0.20;;;;;;;;;;5075306;28;20271;-74
2024/02/19 09:10:15;;;;;;;0.20;0.20;;;;;;;;;;5038623;28;20222;-73
2024/02/19 09:12:41;;;;;;;0.17;0.17;;;;;;;;;;5077145;28;20235;-74
2024/02/19 09:15:08;;;;;;;0.10;0.10;;;;;;;;;;5046468;28;20260;-73
2024/02/19 09:17:34;;;;;;;0.20;0.20;;;;;;;;;;5035495;28;20408;-73
2024/02/19 09:20:03;;;;;;;0.10;0.10;;;;;;;;;;5046560;28;20274;-73
2024/02/19 09:22:30;;;;;;;0.10;0.10;;;;;;;;;;5068828;28;20579;-73
2024/02/19 09:24:56;;;;;;;0.20;0.20;;;;;;;;;;5046539;28;20275;-73
2024/02/19 09:27:22;;;;;;;0.20;0.20;;;;;;;;;;5068754;28;20310;-74
2024/02/19 09:29:49;;;;;;;0.20;0.20;;;;;;;;;;5046382;28;20204;-74
2024/02/19 09:32:15;;;;;;;0.20;0.20;;;;;;;;;;5068488;28;20285;-73
2024/02/19 09:34:42;;;;;;;0.10;0.10;;;;;;;;;;5046189;28;20256;-74
2024/02/19 09:37:09;;;;;;;0.20;0.20;;;;;;;;;;5068106;28;20263;-74
2024/02/19 09:39:38;;;;;;;0.20;0.20;;;;;;;;;;5046341;28;20405;-74
2024/02/19 09:42:05;;;;;;;0.20;0.20;;;;;;;;;;5067055;28;20241;-74
2024/02/19 09:44:31;;;;;;;0.10;0.10;;;;;;;;;;5047182;28;20211;-74
2024/02/19 09:47:01;;;;;;;0.20;0.20;;;;;;;;;;5065097;28;20246;-74
2024/02/19 09:49:28;;;;;;;0.20;0.20;;;;;;;;;;5048385;28;20395;-74
2024/02/19 09:51:55;;;;;;;0.10;0.10;;;;;;;;;;5063961;28;20254;-74
2024/02/19 09:54:25;;;;;;;0.20;0.20;;;;;;;;;;5049342;28;20228;-74
2024/02/19 09:56:52;;;;;;;0.10;0.10;;;;;;;;;;5063194;28;20240;-73
2024/02/19 09:59:18;;;;;;;0.10;0.10;;;;;;;;;;5050602;28;20212;-74
2024/02/19 10:01:44;;;;;;;0.10;0.10;;;;;;;;;;5061247;28;20251;-74
2024/02/19 10:04:14;;;;;;;0.10;0.10;;;;;;;;;;5052198;28;20271;-74
2024/02/19 10:06:41;;;;;;;0.20;0.20;;;;;;;;;;5060034;28;20259;-74
2024/02/19 10:09:08;;;;;;;0.10;0.10;;;;;;;;;;5052804;28;20305;-74
2024/02/19 10:11:36;;;;;;;0.20;0.20;;;;;;;;;;5058645;28;20308;-74
2024/02/19 10:14:03;;;;;;;0.20;0.20;;;;;;;;;;5054304;28;20197;-74
2024/02/19 10:16:29;;;;;;;0.10;0.10;;;;;;;;;;5056678;28;20242;-73
2024/02/19 10:19:03;;;;;;;0.10;0.10;;;;;;;;;;5055269;28;20224;-74
2024/02/19 10:21:30;;;;;;;0.10;0.10;;;;;;;;;;5056976;28;20303;-74
2024/02/19 10:23:56;;;;;;;0.10;0.10;;;;;;;;;;5055999;28;20463;-74
2024/02/19 10:26:23;;;;;;;0.10;0.10;;;;;;;;;;5055229;28;20236;-74
2024/02/19 10:28:53;;;;;;;0.17;0.17;;;;;;;;;;5057922;28;20278;-73
2024/02/19 10:31:20;;;;;;;0.10;0.10;;;;;;;;;;5054083;28;20255;-74
2024/02/19 10:33:46;;;;;;;0.10;0.10;;;;;;;;;;5058275;28;20241;-73
2024/02/19 10:36:15;;;;;;;0.10;0.10;;;;;;;;;;5051924;28;20258;-73
2024/02/19 10:38:41;;;;;;;0.20;0.20;;;;;;;;;;5059806;28;20206;-73
2024/02/19 10:41:08;;;;;;;0.10;0.10;;;;;;;;;;5050831;28;20237;-74
2024/02/19 10:43:35;;;;;;;0.10;0.10;;;;;;;;;;5061427;28;20424;-74
2024/02/19 10:46:03;;;;;;;0.10;0.10;;;;;;;;;;5048936;28;20269;-74
2024/02/19 10:48:30;;;;;;;0.10;0.10;;;;;;;;;;5062866;28;20239;-74
2024/02/19 10:50:56;;;;;;;0.20;0.20;;;;;;;;;;5047443;28;20241;-74
2024/02/19 10:53:27;;;;;;;0.10;0.10;;;;;;;;;;5064084;28;20281;-74
2024/02/19 10:56:08;;;;;;;0.10;0.10;;;;;;;;;;5046194;28;20555;-73
2024/02/19 10:58:34;;;;;;;0.20;0.20;;;;;;;;;;5061612;28;20264;-73
2024/02/19 11:01:03;;;;;;;0.17;0.17;;;;;;;;;;5048274;28;20304;-75
2024/02/19 11:03:30;;;;;;;0.10;0.10;;;;;;;;;;5062565;28;20436;-76
2024/02/19 11:05:59;;;;;;;0.10;0.10;;;;;;;;;;5046960;28;20244;-74
2024/02/19 11:08:28;;;;;;;0.10;0.10;;;;;;;;;;5062850;28;20264;-74
2024/02/19 11:10:57;;;;;;;0.10;0.10;;;;;;;;;;5046878;28;20556;-73
2024/02/19 11:13:26;;;;;;;0.20;0.20;;;;;;;;;;5063761;28;20206;-74
2024/02/19 11:15:53;;;;;;;0.10;0.10;;;;;;;;;;5046190;28;20290;-74
2024/02/19 11:18:21;;;;;;;0.10;0.10;;;;;;;;;;5064924;28;20238;-74
2024/02/19 11:20:48;;;;;;;0.10;0.10;;;;;;;;;;5044868;28;20239;-73
2024/02/19 11:23:17;;;;;;;0.10;0.10;;;;;;;;;;5065641;28;20217;-74
2024/02/19 11:25:44;;;;;;;0.13;0.13;;;;;;;;;;5043546;28;20271;-74
2024/02/19 11:28:11;;;;;;;0.10;0.10;;;;;;;;;;5066657;28;20251;-74
2024/02/19 11:30:37;;;;;;;0.20;0.20;;;;;;;;;;5041098;28;20306;-74
2024/02/19 11:33:04;;;;;;;0.10;0.10;;;;;;;;;;5068517;28;20217;-74
2024/02/19 11:35:34;;;;;;;0.20;0.20;;;;;;;;;;5039923;28;20363;-74
2024/02/19 11:38:00;;;;;;;0.10;0.10;;;;;;;;;;5069337;28;20211;-74
2024/02/19 11:40:31;;;;;;;0.10;0.10;;;;;;;;;;5039013;28;20247;-74
2024/02/19 11:42:59;;;;;;;0.10;0.10;;;;;;;;;;5070026;28;20205;-74
2024/02/19 11:45:25;;;;;;;0.10;0.10;;;;;;;;;;5038648;28;20209;-74
2024/02/19 11:47:51;;;;;;;0.10;0.10;;;;;;;;;;5071426;28;20450;-74
2024/02/19 11:50:21;;;;;;;0.20;0.20;;;;;;;;;;5036247;28;20243;-74
2024/02/19 11:52:51;;;;;;;0.10;0.10;;;;;;;;;;5072954;28;20450;-73
2024/02/19 11:55:18;;;;;;;0.10;0.10;;;;;;;;;;5036316;28;20276;-73
2024/02/19 11:57:44;;;;;;;0.10;0.10;;;;;;;;;;5073141;28;20213;-75
2024/02/19 12:00:13;;;;;;;0.10;0.10;;;;;;;;;;5044050;28;20207;-74
2024/02/19 12:02:42;;;;;;;0.10;0.10;;;;;;;;;;5032772;28;20208;-75
2024/02/19 12:05:10;;;;;;;0.10;0.10;;;;;;;;;;5041946;28;20212;-74
2024/02/19 12:07:36;;;;;;;0.10;0.10;;;;;;;;;;5067743;28;20543;-77
2024/02/19 12:10:06;;;;;;;0.20;0.20;;;;;;;;;;5024160;28;20196;-77
2024/02/19 12:12:32;;;;;;;0.10;0.10;;;;;;;;;;5045776;28;20271;-77
2024/02/19 12:14:59;;;;;;;0.10;0.10;;;;;;;;;;5023721;28;20402;-73
2024/02/19 12:17:26;;;;;;;0.10;0.10;;;;;;;;;;5045794;28;20355;-73
2024/02/19 12:19:53;;;;;;;0.10;0.10;;;;;;;;;;5023743;28;20213;-73
2024/02/19 12:22:19;;;;;;;0.17;0.17;;;;;;;;;;5045703;28;20577;-73
2024/02/19 12:24:47;;;;;;;0.10;0.10;;;;;;;;;;5023659;28;20205;-71
2024/02/19 12:27:14;;;;;;;0.10;0.10;;;;;;;;;;5045571;28;20240;-71
2024/02/19 12:29:41;;;;;;;0.10;0.10;;;;;;;;;;5023582;28;20204;-73
2024/02/19 12:32:07;;;;;;;0.10;0.10;;;;;;;;;;5044978;28;20262;-73
2024/02/19 12:34:34;;;;;;;0.10;0.10;;;;;;;;;;5024138;28;20205;-74
2024/02/19 12:37:01;;;;;;;0.10;0.10;;;;;;;;;;5043134;28;20435;-74
2024/02/19 12:39:30;;;;;;;0.10;0.10;;;;;;;;;;5025619;28;20271;-74
2024/02/19 12:41:56;;;;;;;0.10;0.10;;;;;;;;;;5045516;28;20248;-74
2024/02/19 12:44:24;;;;;;;0.20;0.20;;;;;;;;;;5030906;28;20563;-73
2024/02/19 12:46:50;;;;;;;0.20;0.20;;;;;;;;;;5044564;28;20265;-74
2024/02/19 12:49:17;;;;;;;0.10;0.10;;;;;;;;;;5031970;28;20223;-74
2024/02/19 12:51:45;;;;;;;0.10;0.10;;;;;;;;;;5042499;28;20274;-74
2024/02/19 12:54:12;;;;;;;0.10;0.10;;;;;;;;;;5033242;28;20239;-72
2024/02/19 12:56:39;;;;;;;0.10;0.10;;;;;;;;;;5041280;28;20237;-72
2024/02/19 12:59:05;;;;;;;0.13;0.13;;;;;;;;;;5034838;28;20243;-72
2024/02/19 13:01:33;;;;;;;0.10;0.10;;;;;;;;;;5039045;28;20244;-72
2024/02/19 13:03:59;;;;;;;0.10;0.10;;;;;;;;;;5036551;28;20438;-72
2024/02/19 13:06:26;;;;;;;0.10;0.10;;;;;;;;;;5037830;28;20400;-71
2024/02/19 13:08:53;;;;;;;0.10;0.10;;;;;;;;;;5037802;28;20279;-70
2024/02/19 13:11:19;;;;;;;0.10;0.10;;;;;;;;;;5035836;28;20255;-71
2024/02/19 13:13:45;;;;;;;0.10;0.10;;;;;;;;;;5040173;28;20512;-71
2024/02/19 13:16:14;;;;;;;0.10;0.10;;;;;;;;;;5033726;28;20264;-71
2024/02/19 13:18:41;;;;;;;0.10;0.10;;;;;;;;;;5041482;28;20232;-71
2024/02/19 13:21:08;;;;;;;0.10;0.10;;;;;;;;;;5032464;28;20278;-70
2024/02/19 13:23:34;;;;;;;0.10;0.10;;;;;;;;;;5042808;28;20284;-70
2024/02/19 13:26:02;;;;;;;0.10;0.10;;;;;;;;;;5041856;28;20236;-71
2024/02/19 13:28:29;;;;;;;0.10;0.10;;;;;;;;;;5064361;28;20268;-70
2024/02/19 13:30:55;;;;;;;0.10;0.10;;;;;;;;;;5048725;28;20332;-71
2024/02/19 13:33:21;;;;;;;1.07;1.07;;;;;;;;;;5065899;28;20459;-70
2024/02/19 13:35:49;;;;;;;0.10;0.10;;;;;;;;;;5046700;28;20485;-71
2024/02/19 13:38:17;;;;;;;0.10;0.10;;;;;;;;;;5068010;28;20248;-71
2024/02/19 13:40:43;;;;;;;0.10;0.10;;;;;;;;;;5045485;28;20247;-70
2024/02/19 13:43:10;;;;;;;0.10;0.10;;;;;;;;;;5068777;28;20280;-71
2024/02/19 13:45:51;;;;;;;0.10;0.10;;;;;;;;;;5043696;28;20241;-71
2024/02/19 13:48:21;;;;;;;0.10;0.10;;;;;;;;;;5066498;28;20212;-72
2024/02/19 13:50:47;;;;;;;0.10;0.10;;;;;;;;;;5046544;28;20288;-71
2024/02/19 13:53:15;;;;;;;0.10;0.10;;;;;;;;;;5066823;28;20451;-71
2024/02/19 13:55:41;;;;;;;0.10;0.10;;;;;;;;;;5044713;28;20270;-71
2024/02/19 13:58:08;;;;;;;0.10;0.10;;;;;;;;;;5069323;28;20445;-71
2024/02/19 14:00:34;;;;;;;0.10;0.10;;;;;;;;;;5042494;28;20254;-71
2024/02/19 14:03:01;;;;;;;0.10;0.10;;;;;;;;;;5071405;28;20209;-71
2024/02/19 14:05:30;;;;;;;0.13;0.13;;;;;;;;;;5040497;28;20210;-71
2024/02/19 14:07:57;;;;;;;0.10;0.10;;;;;;;;;;5072009;28;20275;-72
2024/02/19 14:10:25;;;;;;;0.10;0.10;;;;;;;;;;5039610;28;20235;-71
2024/02/19 14:12:51;;;;;;;0.10;0.10;;;;;;;;;;5073831;28;20213;-71
2024/02/19 14:15:17;;;;;;;0.17;0.17;;;;;;;;;;5038144;28;20277;-70
2024/02/19 14:17:44;;;;;;;0.10;0.10;;;;;;;;;;5075562;28;20234;-71
2024/02/19 14:20:11;;;;;;;0.10;0.10;;;;;;;;;;5036666;28;20212;-71
2024/02/19 14:22:38;;;;;;;0.10;0.10;;;;;;;;;;5077112;28;20437;-71
2024/02/19 14:25:08;;;;;;;0.10;0.10;;;;;;;;;;5045296;28;20292;-71
2024/02/19 14:27:38;;;;;;;0.10;0.10;;;;;;;;;;5034582;28;20207;-71
2024/02/19 14:30:05;;;;;;;0.10;0.10;;;;;;;;;;5045624;28;20215;-71
2024/02/19 14:32:31;;;;;;;0.10;0.10;;;;;;;;;;5067613;28;20248;-71
2024/02/19 14:34:58;;;;;;;0.10;0.10;;;;;;;;;;5045169;28;20207;-71
2024/02/19 14:37:26;;;;;;;0.10;0.10;;;;;;;;;;5067498;28;20237;-71
2024/02/19 14:39:53;;;;;;;0.10;0.10;;;;;;;;;;5045402;28;20204;-72
2024/02/19 14:42:19;;;;;;;0.10;0.10;;;;;;;;;;5067428;28;20470;-71